Terminal Aerodrome Forecast
Issued by NWS Chicago, IL

Home | Current Version | Previous Version | Graphics & Text | Print | Product List | Glossary On
Versions: 1 2 3 4 5 6 7 8 9 10 11 12 13 14 15 16 17 18 19 20 21 22 23 24 25 26 27 28 29 30 31 32 33 34 35
000
FTUS43 KLOT 181900 AAA
TAFRFD
TAF AMD
KRFD 181957Z 1820/1918 20008KT P6SM BKN035
     FM190100 20006KT P6SM VCSH BKN040
     FM190300 19006KT 5SM -TSRA BR BKN025CB
     FM190700 20007KT 3SM BR SCT010 BKN020
     FM191400 22012G18KT P6SM VCSH BKN035 PROB30 1915/1918 -TSRA
      BKN035CB=

USA.gov is the U.S. government's official web portal to all federal, state and local government web resources and services.